sensor_id;sensor_type;location;lat;lon;timestamp;P1;durP1;ratioP1;P2;durP2;ratioP2
35847;SDS011;22332;51.954;20.118;2022-08-18T00:00:48;16.00;;;13.40;;
35847;SDS011;22332;51.954;20.118;2022-08-18T00:03:54;16.10;;;13.30;;
35847;SDS011;22332;51.954;20.118;2022-08-18T00:06:59;13.90;;;12.30;;
35847;SDS011;22332;51.954;20.118;2022-08-18T00:10:05;14.50;;;12.10;;
35847;SDS011;22332;51.954;20.118;2022-08-18T00:13:12;15.10;;;11.80;;
35847;SDS011;22332;51.954;20.118;2022-08-18T00:16:17;13.80;;;12.40;;
35847;SDS011;22332;51.954;20.118;2022-08-18T00:19:23;14.50;;;13.00;;
35847;SDS011;22332;51.954;20.118;2022-08-18T00:22:28;13.70;;;12.30;;
35847;SDS011;22332;51.954;20.118;2022-08-18T00:25:34;12.00;;;10.90;;
35847;SDS011;22332;51.954;20.118;2022-08-18T00:28:39;13.30;;;11.90;;
35847;SDS011;22332;51.954;20.118;2022-08-18T00:31:45;13.50;;;12.10;;
35847;SDS011;22332;51.954;20.118;2022-08-18T00:34:50;14.10;;;12.70;;
35847;SDS011;22332;51.954;20.118;2022-08-18T00:37:56;15.20;;;13.30;;
35847;SDS011;22332;51.954;20.118;2022-08-18T00:41:04;13.30;;;11.90;;
35847;SDS011;22332;51.954;20.118;2022-08-18T00:44:09;13.10;;;11.70;;
35847;SDS011;22332;51.954;20.118;2022-08-18T00:47:18;12.40;;;11.20;;
35847;SDS011;22332;51.954;20.118;2022-08-18T00:50:25;14.80;;;13.20;;
35847;SDS011;22332;51.954;20.118;2022-08-18T00:53:35;14.90;;;13.30;;
35847;SDS011;22332;51.954;20.118;2022-08-18T00:56:46;13.10;;;11.80;;
35847;SDS011;22332;51.954;20.118;2022-08-18T00:59:55;12.90;;;11.50;;
35847;SDS011;22332;51.954;20.118;2022-08-18T01:03:13;14.50;;;13.00;;
35847;SDS011;22332;51.954;20.118;2022-08-18T01:06:22;15.10;;;13.20;;
35847;SDS011;22332;51.954;20.118;2022-08-18T01:09:33;15.00;;;13.50;;
35847;SDS011;22332;51.954;20.118;2022-08-18T01:12:39;12.90;;;11.40;;
35847;SDS011;22332;51.954;20.118;2022-08-18T01:15:45;13.70;;;10.70;;
35847;SDS011;22332;51.954;20.118;2022-08-18T01:18:50;13.10;;;11.80;;
35847;SDS011;22332;51.954;20.118;2022-08-18T01:22:16;13.50;;;12.10;;
35847;SDS011;22332;51.954;20.118;2022-08-18T01:25:25;13.90;;;12.40;;
35847;SDS011;22332;51.954;20.118;2022-08-18T01:28:48;14.30;;;12.70;;
35847;SDS011;22332;51.954;20.118;2022-08-18T01:31:54;15.20;;;11.20;;
35847;SDS011;22332;51.954;20.118;2022-08-18T01:35:00;15.50;;;12.60;;
35847;SDS011;22332;51.954;20.118;2022-08-18T01:38:05;14.20;;;12.70;;
35847;SDS011;22332;51.954;20.118;2022-08-18T01:41:11;13.60;;;12.20;;
35847;SDS011;22332;51.954;20.118;2022-08-18T01:44:16;12.40;;;11.10;;
35847;SDS011;22332;51.954;20.118;2022-08-18T01:47:22;11.90;;;10.70;;
35847;SDS011;22332;51.954;20.118;2022-08-18T01:50:27;12.60;;;11.30;;
35847;SDS011;22332;51.954;20.118;2022-08-18T01:53:35;12.30;;;11.10;;
35847;SDS011;22332;51.954;20.118;2022-08-18T01:56:41;14.00;;;12.50;;
35847;SDS011;22332;51.954;20.118;2022-08-18T01:59:47;13.90;;;11.70;;
35847;SDS011;22332;51.954;20.118;2022-08-18T02:02:57;13.50;;;11.10;;
35847;SDS011;22332;51.954;20.118;2022-08-18T02:06:06;13.10;;;11.80;;
35847;SDS011;22332;51.954;20.118;2022-08-18T02:09:14;15.30;;;11.90;;
35847;SDS011;22332;51.954;20.118;2022-08-18T02:12:19;13.20;;;11.50;;
35847;SDS011;22332;51.954;20.118;2022-08-18T02:15:24;15.00;;;12.90;;
35847;SDS011;22332;51.954;20.118;2022-08-18T02:18:31;14.00;;;12.20;;
35847;SDS011;22332;51.954;20.118;2022-08-18T02:21:38;14.60;;;12.10;;
35847;SDS011;22332;51.954;20.118;2022-08-18T02:24:44;13.90;;;12.10;;
35847;SDS011;22332;51.954;20.118;2022-08-18T02:27:50;12.50;;;11.10;;
35847;SDS011;22332;51.954;20.118;2022-08-18T02:30:55;13.80;;;11.60;;
35847;SDS011;22332;51.954;20.118;2022-08-18T02:34:05;15.40;;;11.50;;
35847;SDS011;22332;51.954;20.118;2022-08-18T02:37:11;12.50;;;11.20;;
35847;SDS011;22332;51.954;20.118;2022-08-18T02:40:16;11.40;;;10.10;;
35847;SDS011;22332;51.954;20.118;2022-08-18T02:43:22;13.20;;;10.90;;
35847;SDS011;22332;51.954;20.118;2022-08-18T02:46:29;14.40;;;11.60;;
35847;SDS011;22332;51.954;20.118;2022-08-18T02:49:34;12.60;;;11.30;;
35847;SDS011;22332;51.954;20.118;2022-08-18T02:52:40;13.40;;;12.10;;
35847;SDS011;22332;51.954;20.118;2022-08-18T02:55:45;12.80;;;11.50;;
35847;SDS011;22332;51.954;20.118;2022-08-18T02:58:52;13.60;;;11.00;;
35847;SDS011;22332;51.954;20.118;2022-08-18T03:01:59;12.90;;;11.60;;
35847;SDS011;22332;51.954;20.118;2022-08-18T03:05:05;13.00;;;11.60;;
35847;SDS011;22332;51.954;20.118;2022-08-18T03:08:11;15.30;;;13.60;;
35847;SDS011;22332;51.954;20.118;2022-08-18T03:11:18;15.20;;;13.70;;
35847;SDS011;22332;51.954;20.118;2022-08-18T03:14:26;13.40;;;12.00;;
35847;SDS011;22332;51.954;20.118;2022-08-18T03:17:33;12.00;;;10.80;;
35847;SDS011;22332;51.954;20.118;2022-08-18T03:20:39;14.80;;;13.10;;
35847;SDS011;22332;51.954;20.118;2022-08-18T03:23:47;13.90;;;12.50;;
35847;SDS011;22332;51.954;20.118;2022-08-18T03:26:54;14.40;;;13.00;;
35847;SDS011;22332;51.954;20.118;2022-08-18T03:30:00;15.70;;;12.50;;
35847;SDS011;22332;51.954;20.118;2022-08-18T03:33:06;15.90;;;12.20;;
35847;SDS011;22332;51.954;20.118;2022-08-18T03:36:12;15.00;;;13.40;;
35847;SDS011;22332;51.954;20.118;2022-08-18T03:39:19;15.50;;;13.90;;
35847;SDS011;22332;51.954;20.118;2022-08-18T03:42:26;14.90;;;13.40;;
35847;SDS011;22332;51.954;20.118;2022-08-18T03:45:32;15.00;;;13.10;;
35847;SDS011;22332;51.954;20.118;2022-08-18T03:48:39;14.00;;;12.60;;
35847;SDS011;22332;51.954;20.118;2022-08-18T03:51:48;13.80;;;12.40;;
35847;SDS011;22332;51.954;20.118;2022-08-18T03:54:53;14.50;;;12.20;;
35847;SDS011;22332;51.954;20.118;2022-08-18T03:57:59;14.70;;;13.20;;
35847;SDS011;22332;51.954;20.118;2022-08-18T04:01:05;15.90;;;13.20;;
35847;SDS011;22332;51.954;20.118;2022-08-18T04:04:13;16.00;;;13.10;;
35847;SDS011;22332;51.954;20.118;2022-08-18T04:07:21;14.20;;;12.10;;
35847;SDS011;22332;51.954;20.118;2022-08-18T04:10:27;13.70;;;12.30;;
35847;SDS011;22332;51.954;20.118;2022-08-18T04:13:32;15.10;;;13.10;;
35847;SDS011;22332;51.954;20.118;2022-08-18T04:16:39;14.50;;;12.90;;
35847;SDS011;22332;51.954;20.118;2022-08-18T04:19:45;14.10;;;12.60;;
35847;SDS011;22332;51.954;20.118;2022-08-18T04:22:51;15.00;;;12.20;;
35847;SDS011;22332;51.954;20.118;2022-08-18T04:25:58;15.40;;;11.50;;
35847;SDS011;22332;51.954;20.118;2022-08-18T04:29:05;13.20;;;11.90;;
35847;SDS011;22332;51.954;20.118;2022-08-18T04:32:11;14.50;;;13.00;;
35847;SDS011;22332;51.954;20.118;2022-08-18T04:35:17;14.90;;;13.30;;
35847;SDS011;22332;51.954;20.118;2022-08-18T04:38:23;13.40;;;12.00;;
35847;SDS011;22332;51.954;20.118;2022-08-18T04:41:29;13.10;;;11.70;;
35847;SDS011;22332;51.954;20.118;2022-08-18T04:44:34;13.80;;;12.10;;
35847;SDS011;22332;51.954;20.118;2022-08-18T04:47:40;13.70;;;12.40;;
35847;SDS011;22332;51.954;20.118;2022-08-18T04:50:45;15.70;;;14.10;;
35847;SDS011;22332;51.954;20.118;2022-08-18T04:53:51;14.10;;;12.60;;
35847;SDS011;22332;51.954;20.118;2022-08-18T04:57:12;12.50;;;11.20;;
35847;SDS011;22332;51.954;20.118;2022-08-18T05:00:20;13.50;;;12.10;;
35847;SDS011;22332;51.954;20.118;2022-08-18T05:03:25;14.30;;;12.30;;
35847;SDS011;22332;51.954;20.118;2022-08-18T05:06:31;15.40;;;13.80;;
35847;SDS011;22332;51.954;20.118;2022-08-18T05:09:37;17.50;;;14.40;;
35847;SDS011;22332;51.954;20.118;2022-08-18T05:12:45;15.90;;;14.20;;
35847;SDS011;22332;51.954;20.118;2022-08-18T05:15:54;17.40;;;14.90;;
35847;SDS011;22332;51.954;20.118;2022-08-18T05:19:06;18.10;;;16.30;;
35847;SDS011;22332;51.954;20.118;2022-08-18T05:22:13;17.90;;;15.60;;
35847;SDS011;22332;51.954;20.118;2022-08-18T05:25:21;16.90;;;15.00;;
35847;SDS011;22332;51.954;20.118;2022-08-18T05:28:26;15.30;;;13.90;;
35847;SDS011;22332;51.954;20.118;2022-08-18T05:31:32;13.70;;;12.30;;
35847;SDS011;22332;51.954;20.118;2022-08-18T05:34:38;17.50;;;15.40;;
35847;SDS011;22332;51.954;20.118;2022-08-18T05:37:45;18.30;;;16.50;;
35847;SDS011;22332;51.954;20.118;2022-08-18T05:41:02;15.70;;;14.10;;
35847;SDS011;22332;51.954;20.118;2022-08-18T05:44:12;11.70;;;10.60;;
35847;SDS011;22332;51.954;20.118;2022-08-18T05:47:21;13.60;;;12.20;;
35847;SDS011;22332;51.954;20.118;2022-08-18T05:50:29;13.10;;;11.70;;
35847;SDS011;22332;51.954;20.118;2022-08-18T05:53:38;15.60;;;14.10;;
35847;SDS011;22332;51.954;20.118;2022-08-18T05:57:03;15.40;;;13.90;;
35847;SDS011;22332;51.954;20.118;2022-08-18T06:00:13;14.80;;;13.30;;
35847;SDS011;22332;51.954;20.118;2022-08-18T06:03:20;12.80;;;11.40;;
35847;SDS011;22332;51.954;20.118;2022-08-18T06:06:27;17.30;;;13.10;;
35847;SDS011;22332;51.954;20.118;2022-08-18T06:09:36;19.20;;;15.00;;
35847;SDS011;22332;51.954;20.118;2022-08-18T06:12:49;17.50;;;15.70;;
35847;SDS011;22332;51.954;20.118;2022-08-18T06:15:58;15.50;;;14.00;;
35847;SDS011;22332;51.954;20.118;2022-08-18T06:22:23;15.00;;;13.40;;
35847;SDS011;22332;51.954;20.118;2022-08-18T06:25:41;17.50;;;14.30;;
35847;SDS011;22332;51.954;20.118;2022-08-18T06:28:59;14.80;;;13.30;;
35847;SDS011;22332;51.954;20.118;2022-08-18T06:32:14;15.00;;;13.50;;
35847;SDS011;22332;51.954;20.118;2022-08-18T06:35:28;15.30;;;13.50;;
35847;SDS011;22332;51.954;20.118;2022-08-18T06:38:41;16.60;;;13.70;;
35847;SDS011;22332;51.954;20.118;2022-08-18T06:41:52;16.40;;;14.70;;
35847;SDS011;22332;51.954;20.118;2022-08-18T06:44:59;16.30;;;14.70;;
35847;SDS011;22332;51.954;20.118;2022-08-18T06:48:11;18.60;;;16.20;;
35847;SDS011;22332;51.954;20.118;2022-08-18T06:51:25;18.60;;;16.60;;
35847;SDS011;22332;51.954;20.118;2022-08-18T06:54:31;20.10;;;15.80;;
35847;SDS011;22332;51.954;20.118;2022-08-18T06:57:53;15.80;;;14.30;;
35847;SDS011;22332;51.954;20.118;2022-08-18T07:01:01;16.00;;;14.40;;
35847;SDS011;22332;51.954;20.118;2022-08-18T07:04:13;14.30;;;11.60;;
35847;SDS011;22332;51.954;20.118;2022-08-18T07:07:36;14.20;;;11.90;;
35847;SDS011;22332;51.954;20.118;2022-08-18T07:10:43;14.80;;;12.10;;
35847;SDS011;22332;51.954;20.118;2022-08-18T07:13:51;17.50;;;15.40;;
35847;SDS011;22332;51.954;20.118;2022-08-18T07:17:06;16.20;;;12.30;;
35847;SDS011;22332;51.954;20.118;2022-08-18T07:20:18;13.30;;;12.00;;
35847;SDS011;22332;51.954;20.118;2022-08-18T07:23:31;15.70;;;11.30;;
35847;SDS011;22332;51.954;20.118;2022-08-18T07:30:04;13.50;;;11.40;;
35847;SDS011;22332;51.954;20.118;2022-08-18T07:33:15;12.20;;;10.90;;
35847;SDS011;22332;51.954;20.118;2022-08-18T07:36:26;12.50;;;11.20;;
35847;SDS011;22332;51.954;20.118;2022-08-18T07:39:35;12.60;;;11.30;;
35847;SDS011;22332;51.954;20.118;2022-08-18T07:42:50;11.20;;;10.10;;
35847;SDS011;22332;51.954;20.118;2022-08-18T07:46:01;12.10;;;10.80;;
35847;SDS011;22332;51.954;20.118;2022-08-18T07:49:14;12.30;;;11.00;;
35847;SDS011;22332;51.954;20.118;2022-08-18T07:52:24;13.90;;;11.40;;
35847;SDS011;22332;51.954;20.118;2022-08-18T07:55:34;11.90;;;10.80;;
35847;SDS011;22332;51.954;20.118;2022-08-18T07:58:43;12.40;;;10.40;;
35847;SDS011;22332;51.954;20.118;2022-08-18T08:01:57;11.40;;;10.30;;
35847;SDS011;22332;51.954;20.118;2022-08-18T08:05:23;11.40;;;10.30;;
35847;SDS011;22332;51.954;20.118;2022-08-18T08:08:43;14.20;;;11.50;;
35847;SDS011;22332;51.954;20.118;2022-08-18T08:11:55;13.00;;;10.60;;
35847;SDS011;22332;51.954;20.118;2022-08-18T08:15:07;10.90;;;9.80;;
35847;SDS011;22332;51.954;20.118;2022-08-18T08:18:22;11.50;;;10.30;;
35847;SDS011;22332;51.954;20.118;2022-08-18T08:21:38;11.40;;;10.40;;
35847;SDS011;22332;51.954;20.118;2022-08-18T08:24:48;11.80;;;10.70;;
35847;SDS011;22332;51.954;20.118;2022-08-18T08:28:05;12.20;;;10.60;;
35847;SDS011;22332;51.954;20.118;2022-08-18T08:31:19;11.40;;;10.20;;
35847;SDS011;22332;51.954;20.118;2022-08-18T08:34:34;11.50;;;10.30;;
35847;SDS011;22332;51.954;20.118;2022-08-18T08:37:49;11.20;;;10.10;;
35847;SDS011;22332;51.954;20.118;2022-08-18T08:40:58;12.00;;;10.80;;
35847;SDS011;22332;51.954;20.118;2022-08-18T08:44:10;10.60;;;9.70;;
35847;SDS011;22332;51.954;20.118;2022-08-18T08:47:22;11.80;;;10.60;;
35847;SDS011;22332;51.954;20.118;2022-08-18T08:50:34;11.70;;;10.20;;
35847;SDS011;22332;51.954;20.118;2022-08-18T08:53:48;12.10;;;10.50;;
35847;SDS011;22332;51.954;20.118;2022-08-18T08:56:58;11.60;;;10.50;;
35847;SDS011;22332;51.954;20.118;2022-08-18T09:00:08;11.60;;;10.50;;
35847;SDS011;22332;51.954;20.118;2022-08-18T09:03:21;11.40;;;10.30;;
35847;SDS011;22332;51.954;20.118;2022-08-18T09:06:35;11.20;;;10.10;;
35847;SDS011;22332;51.954;20.118;2022-08-18T09:09:55;11.90;;;10.40;;
35847;SDS011;22332;51.954;20.118;2022-08-18T09:13:26;12.40;;;10.30;;
35847;SDS011;22332;51.954;20.118;2022-08-18T09:16:53;11.60;;;10.40;;
35847;SDS011;22332;51.954;20.118;2022-08-18T09:20:34;10.90;;;9.70;;
35847;SDS011;22332;51.954;20.118;2022-08-18T09:23:52;10.40;;;9.20;;
35847;SDS011;22332;51.954;20.118;2022-08-18T09:27:14;10.80;;;9.70;;
35847;SDS011;22332;51.954;20.118;2022-08-18T09:30:52;10.00;;;9.00;;
35847;SDS011;22332;51.954;20.118;2022-08-18T09:37:53;12.40;;;9.30;;
35847;SDS011;22332;51.954;20.118;2022-08-18T09:41:20;9.70;;;8.80;;
35847;SDS011;22332;51.954;20.118;2022-08-18T09:48:20;8.80;;;8.00;;
35847;SDS011;22332;51.954;20.118;2022-08-18T09:51:35;9.60;;;8.60;;
35847;SDS011;22332;51.954;20.118;2022-08-18T09:54:47;9.50;;;8.40;;
35847;SDS011;22332;51.954;20.118;2022-08-18T10:04:41;8.70;;;7.90;;
35847;SDS011;22332;51.954;20.118;2022-08-18T10:07:53;8.30;;;7.60;;
35847;SDS011;22332;51.954;20.118;2022-08-18T10:11:24;9.20;;;8.20;;
35847;SDS011;22332;51.954;20.118;2022-08-18T10:14:48;9.00;;;8.10;;
35847;SDS011;22332;51.954;20.118;2022-08-18T10:25:06;8.40;;;7.60;;
35847;SDS011;22332;51.954;20.118;2022-08-18T10:38:59;9.70;;;7.90;;
35847;SDS011;22332;51.954;20.118;2022-08-18T10:42:11;8.50;;;7.20;;
35847;SDS011;22332;51.954;20.118;2022-08-18T10:45:23;8.90;;;7.40;;
35847;SDS011;22332;51.954;20.118;2022-08-18T10:48:32;7.90;;;7.10;;
35847;SDS011;22332;51.954;20.118;2022-08-18T10:51:45;10.10;;;7.30;;
35847;SDS011;22332;51.954;20.118;2022-08-18T10:55:02;10.70;;;7.70;;
35847;SDS011;22332;51.954;20.118;2022-08-18T11:02:04;8.20;;;7.40;;
35847;SDS011;22332;51.954;20.118;2022-08-18T11:05:37;8.10;;;6.90;;
35847;SDS011;22332;51.954;20.118;2022-08-18T11:08:45;10.20;;;7.70;;
35847;SDS011;22332;51.954;20.118;2022-08-18T11:11:54;7.80;;;7.10;;
35847;SDS011;22332;51.954;20.118;2022-08-18T11:15:05;9.40;;;7.50;;
35847;SDS011;22332;51.954;20.118;2022-08-18T11:18:22;7.90;;;7.10;;
35847;SDS011;22332;51.954;20.118;2022-08-18T11:21:37;8.90;;;7.50;;
35847;SDS011;22332;51.954;20.118;2022-08-18T11:24:45;9.10;;;7.30;;
35847;SDS011;22332;51.954;20.118;2022-08-18T11:27:51;8.30;;;7.50;;
35847;SDS011;22332;51.954;20.118;2022-08-18T11:30:57;8.50;;;7.60;;
35847;SDS011;22332;51.954;20.118;2022-08-18T11:34:04;8.40;;;7.70;;
35847;SDS011;22332;51.954;20.118;2022-08-18T11:37:20;8.90;;;7.90;;
35847;SDS011;22332;51.954;20.118;2022-08-18T11:40:37;7.60;;;6.90;;
35847;SDS011;22332;51.954;20.118;2022-08-18T11:43:44;7.10;;;6.50;;
35847;SDS011;22332;51.954;20.118;2022-08-18T11:46:53;10.50;;;6.80;;
35847;SDS011;22332;51.954;20.118;2022-08-18T11:50:25;7.80;;;7.20;;
35847;SDS011;22332;51.954;20.118;2022-08-18T11:53:38;7.80;;;7.00;;
35847;SDS011;22332;51.954;20.118;2022-08-18T11:56:53;8.30;;;7.50;;
35847;SDS011;22332;51.954;20.118;2022-08-18T12:00:40;8.40;;;7.60;;
35847;SDS011;22332;51.954;20.118;2022-08-18T12:03:57;8.80;;;7.50;;
35847;SDS011;22332;51.954;20.118;2022-08-18T12:07:13;10.00;;;8.10;;
35847;SDS011;22332;51.954;20.118;2022-08-18T12:10:29;11.90;;;7.80;;
35847;SDS011;22332;51.954;20.118;2022-08-18T12:13:34;8.50;;;7.60;;
35847;SDS011;22332;51.954;20.118;2022-08-18T12:16:40;8.40;;;6.90;;
35847;SDS011;22332;51.954;20.118;2022-08-18T12:19:46;8.50;;;7.60;;
35847;SDS011;22332;51.954;20.118;2022-08-18T12:22:54;8.20;;;7.40;;
35847;SDS011;22332;51.954;20.118;2022-08-18T12:26:00;8.80;;;7.90;;
35847;SDS011;22332;51.954;20.118;2022-08-18T12:29:05;8.80;;;7.80;;
35847;SDS011;22332;51.954;20.118;2022-08-18T12:32:11;8.60;;;7.40;;
35847;SDS011;22332;51.954;20.118;2022-08-18T12:35:17;8.50;;;7.70;;
35847;SDS011;22332;51.954;20.118;2022-08-18T12:38:23;8.70;;;7.80;;
35847;SDS011;22332;51.954;20.118;2022-08-18T12:41:28;8.00;;;7.30;;
35847;SDS011;22332;51.954;20.118;2022-08-18T12:44:34;8.40;;;7.60;;
35847;SDS011;22332;51.954;20.118;2022-08-18T12:47:40;8.10;;;7.30;;
35847;SDS011;22332;51.954;20.118;2022-08-18T12:50:45;9.10;;;7.80;;
35847;SDS011;22332;51.954;20.118;2022-08-18T12:53:50;9.30;;;7.80;;
35847;SDS011;22332;51.954;20.118;2022-08-18T12:56:56;8.60;;;7.70;;
35847;SDS011;22332;51.954;20.118;2022-08-18T13:00:02;8.40;;;7.30;;
35847;SDS011;22332;51.954;20.118;2022-08-18T13:03:10;7.90;;;7.20;;
35847;SDS011;22332;51.954;20.118;2022-08-18T13:06:16;8.20;;;7.30;;
35847;SDS011;22332;51.954;20.118;2022-08-18T13:09:22;7.80;;;7.10;;
35847;SDS011;22332;51.954;20.118;2022-08-18T13:12:28;9.00;;;7.30;;
35847;SDS011;22332;51.954;20.118;2022-08-18T13:15:33;7.90;;;7.20;;
35847;SDS011;22332;51.954;20.118;2022-08-18T13:18:39;7.60;;;6.90;;
35847;SDS011;22332;51.954;20.118;2022-08-18T13:21:45;7.90;;;7.10;;
35847;SDS011;22332;51.954;20.118;2022-08-18T13:24:50;8.30;;;7.50;;
35847;SDS011;22332;51.954;20.118;2022-08-18T13:27:56;7.70;;;7.00;;
35847;SDS011;22332;51.954;20.118;2022-08-18T13:31:02;9.00;;;7.60;;
35847;SDS011;22332;51.954;20.118;2022-08-18T13:34:07;8.50;;;7.20;;
35847;SDS011;22332;51.954;20.118;2022-08-18T13:37:14;7.90;;;7.10;;
35847;SDS011;22332;51.954;20.118;2022-08-18T13:40:20;8.80;;;7.90;;
35847;SDS011;22332;51.954;20.118;2022-08-18T13:43:26;8.10;;;7.30;;
35847;SDS011;22332;51.954;20.118;2022-08-18T13:46:34;7.70;;;7.00;;
35847;SDS011;22332;51.954;20.118;2022-08-18T13:49:47;8.10;;;7.20;;
35847;SDS011;22332;51.954;20.118;2022-08-18T13:52:53;8.30;;;7.30;;
35847;SDS011;22332;51.954;20.118;2022-08-18T13:56:02;8.00;;;7.20;;
35847;SDS011;22332;51.954;20.118;2022-08-18T13:59:08;8.80;;;7.60;;
35847;SDS011;22332;51.954;20.118;2022-08-18T14:02:14;9.20;;;7.70;;
35847;SDS011;22332;51.954;20.118;2022-08-18T14:05:20;7.80;;;7.10;;
35847;SDS011;22332;51.954;20.118;2022-08-18T14:08:25;8.30;;;7.20;;
35847;SDS011;22332;51.954;20.118;2022-08-18T14:11:32;8.30;;;7.50;;
35847;SDS011;22332;51.954;20.118;2022-08-18T14:14:40;8.40;;;7.40;;
35847;SDS011;22332;51.954;20.118;2022-08-18T14:17:45;8.90;;;7.60;;
35847;SDS011;22332;51.954;20.118;2022-08-18T14:20:51;8.50;;;7.70;;
35847;SDS011;22332;51.954;20.118;2022-08-18T14:24:14;7.70;;;7.00;;
35847;SDS011;22332;51.954;20.118;2022-08-18T14:27:37;8.30;;;7.30;;
35847;SDS011;22332;51.954;20.118;2022-08-18T14:30:44;7.90;;;7.20;;
35847;SDS011;22332;51.954;20.118;2022-08-18T14:33:50;7.40;;;6.80;;
35847;SDS011;22332;51.954;20.118;2022-08-18T14:36:55;8.30;;;7.40;;
35847;SDS011;22332;51.954;20.118;2022-08-18T14:40:01;8.00;;;7.10;;
35847;SDS011;22332;51.954;20.118;2022-08-18T14:43:07;7.90;;;7.10;;
35847;SDS011;22332;51.954;20.118;2022-08-18T14:46:13;8.00;;;6.50;;
35847;SDS011;22332;51.954;20.118;2022-08-18T14:49:18;8.20;;;6.60;;
35847;SDS011;22332;51.954;20.118;2022-08-18T14:52:24;7.00;;;6.30;;
35847;SDS011;22332;51.954;20.118;2022-08-18T14:55:30;7.10;;;6.30;;
35847;SDS011;22332;51.954;20.118;2022-08-18T14:58:35;7.00;;;6.30;;
35847;SDS011;22332;51.954;20.118;2022-08-18T15:01:42;6.60;;;5.90;;
35847;SDS011;22332;51.954;20.118;2022-08-18T15:04:47;6.70;;;5.80;;
35847;SDS011;22332;51.954;20.118;2022-08-18T15:07:55;6.40;;;5.70;;
35847;SDS011;22332;51.954;20.118;2022-08-18T15:11:09;6.40;;;5.80;;
35847;SDS011;22332;51.954;20.118;2022-08-18T15:14:15;7.50;;;5.60;;
35847;SDS011;22332;51.954;20.118;2022-08-18T15:17:21;6.50;;;5.90;;
35847;SDS011;22332;51.954;20.118;2022-08-18T15:20:26;6.10;;;5.60;;
35847;SDS011;22332;51.954;20.118;2022-08-18T15:23:32;6.00;;;5.50;;
35847;SDS011;22332;51.954;20.118;2022-08-18T15:26:56;6.80;;;6.10;;
35847;SDS011;22332;51.954;20.118;2022-08-18T15:30:02;6.00;;;5.50;;
35847;SDS011;22332;51.954;20.118;2022-08-18T15:33:09;7.50;;;5.90;;
35847;SDS011;22332;51.954;20.118;2022-08-18T15:36:17;6.10;;;5.50;;
35847;SDS011;22332;51.954;20.118;2022-08-18T15:39:25;6.30;;;5.70;;
35847;SDS011;22332;51.954;20.118;2022-08-18T15:42:31;6.80;;;5.60;;
35847;SDS011;22332;51.954;20.118;2022-08-18T15:45:37;6.90;;;6.10;;
35847;SDS011;22332;51.954;20.118;2022-08-18T15:48:46;6.70;;;5.50;;
35847;SDS011;22332;51.954;20.118;2022-08-18T15:51:51;6.50;;;5.70;;
35847;SDS011;22332;51.954;20.118;2022-08-18T15:54:59;7.20;;;5.80;;
35847;SDS011;22332;51.954;20.118;2022-08-18T15:58:04;8.30;;;5.50;;
35847;SDS011;22332;51.954;20.118;2022-08-18T16:01:11;5.70;;;5.20;;
35847;SDS011;22332;51.954;20.118;2022-08-18T16:04:18;7.10;;;6.20;;
35847;SDS011;22332;51.954;20.118;2022-08-18T16:07:23;6.40;;;5.30;;
35847;SDS011;22332;51.954;20.118;2022-08-18T16:10:30;6.20;;;5.60;;
35847;SDS011;22332;51.954;20.118;2022-08-18T16:13:37;5.60;;;5.10;;
35847;SDS011;22332;51.954;20.118;2022-08-18T16:16:44;5.80;;;5.20;;
35847;SDS011;22332;51.954;20.118;2022-08-18T16:19:49;6.50;;;5.50;;
35847;SDS011;22332;51.954;20.118;2022-08-18T16:22:55;6.40;;;5.70;;
35847;SDS011;22332;51.954;20.118;2022-08-18T16:26:00;6.30;;;5.80;;
35847;SDS011;22332;51.954;20.118;2022-08-18T16:29:06;6.80;;;6.10;;
35847;SDS011;22332;51.954;20.118;2022-08-18T16:32:12;7.80;;;6.70;;
35847;SDS011;22332;51.954;20.118;2022-08-18T16:35:19;7.80;;;6.70;;
35847;SDS011;22332;51.954;20.118;2022-08-18T16:38:25;7.60;;;6.20;;
35847;SDS011;22332;51.954;20.118;2022-08-18T16:41:30;9.50;;;6.60;;
35847;SDS011;22332;51.954;20.118;2022-08-18T16:44:36;8.50;;;6.70;;
35847;SDS011;22332;51.954;20.118;2022-08-18T16:47:42;10.00;;;8.10;;
35847;SDS011;22332;51.954;20.118;2022-08-18T16:50:47;7.50;;;6.70;;
35847;SDS011;22332;51.954;20.118;2022-08-18T16:53:52;9.60;;;6.20;;
35847;SDS011;22332;51.954;20.118;2022-08-18T16:56:58;7.40;;;6.20;;
35847;SDS011;22332;51.954;20.118;2022-08-18T17:00:05;6.70;;;5.50;;
35847;SDS011;22332;51.954;20.118;2022-08-18T17:03:29;6.50;;;6.00;;
35847;SDS011;22332;51.954;20.118;2022-08-18T17:06:52;6.50;;;5.90;;
35847;SDS011;22332;51.954;20.118;2022-08-18T17:09:58;6.70;;;5.90;;
35847;SDS011;22332;51.954;20.118;2022-08-18T17:13:04;6.60;;;6.00;;
35847;SDS011;22332;51.954;20.118;2022-08-18T17:16:10;8.30;;;6.30;;
35847;SDS011;22332;51.954;20.118;2022-08-18T17:19:16;6.90;;;6.20;;
35847;SDS011;22332;51.954;20.118;2022-08-18T17:22:21;7.00;;;6.20;;
35847;SDS011;22332;51.954;20.118;2022-08-18T17:25:27;7.90;;;6.80;;
35847;SDS011;22332;51.954;20.118;2022-08-18T17:28:34;7.50;;;6.70;;
35847;SDS011;22332;51.954;20.118;2022-08-18T17:31:44;8.00;;;7.20;;
35847;SDS011;22332;51.954;20.118;2022-08-18T17:35:04;8.80;;;7.50;;
35847;SDS011;22332;51.954;20.118;2022-08-18T17:38:18;10.40;;;8.50;;
35847;SDS011;22332;51.954;20.118;2022-08-18T17:41:29;8.70;;;7.90;;
35847;SDS011;22332;51.954;20.118;2022-08-18T17:44:57;7.80;;;6.90;;
35847;SDS011;22332;51.954;20.118;2022-08-18T17:48:08;7.50;;;6.80;;
35847;SDS011;22332;51.954;20.118;2022-08-18T17:51:20;7.30;;;6.40;;
35847;SDS011;22332;51.954;20.118;2022-08-18T17:54:37;8.90;;;6.80;;
35847;SDS011;22332;51.954;20.118;2022-08-18T17:57:48;12.90;;;7.50;;
35847;SDS011;22332;51.954;20.118;2022-08-18T18:00:59;8.40;;;7.10;;
35847;SDS011;22332;51.954;20.118;2022-08-18T18:04:05;8.10;;;7.20;;
35847;SDS011;22332;51.954;20.118;2022-08-18T18:07:19;9.50;;;7.90;;
35847;SDS011;22332;51.954;20.118;2022-08-18T18:10:33;11.70;;;7.70;;
35847;SDS011;22332;51.954;20.118;2022-08-18T18:13:44;8.50;;;7.20;;
35847;SDS011;22332;51.954;20.118;2022-08-18T18:16:59;12.50;;;8.60;;
35847;SDS011;22332;51.954;20.118;2022-08-18T18:20:13;8.70;;;7.70;;
35847;SDS011;22332;51.954;20.118;2022-08-18T18:23:28;9.60;;;7.00;;
35847;SDS011;22332;51.954;20.118;2022-08-18T18:26:36;7.90;;;7.10;;
35847;SDS011;22332;51.954;20.118;2022-08-18T18:29:46;8.10;;;7.30;;
35847;SDS011;22332;51.954;20.118;2022-08-18T18:32:57;9.80;;;7.50;;
35847;SDS011;22332;51.954;20.118;2022-08-18T18:36:05;9.20;;;8.30;;
35847;SDS011;22332;51.954;20.118;2022-08-18T18:39:15;9.20;;;8.30;;
35847;SDS011;22332;51.954;20.118;2022-08-18T18:42:25;12.10;;;9.20;;
35847;SDS011;22332;51.954;20.118;2022-08-18T18:45:33;9.20;;;8.30;;
35847;SDS011;22332;51.954;20.118;2022-08-18T18:48:40;8.60;;;7.60;;
35847;SDS011;22332;51.954;20.118;2022-08-18T18:52:02;9.20;;;8.30;;
35847;SDS011;22332;51.954;20.118;2022-08-18T18:55:14;9.60;;;8.50;;
35847;SDS011;22332;51.954;20.118;2022-08-18T18:58:28;9.80;;;8.80;;
35847;SDS011;22332;51.954;20.118;2022-08-18T19:01:46;10.20;;;7.90;;
35847;SDS011;22332;51.954;20.118;2022-08-18T19:05:09;11.70;;;8.70;;
35847;SDS011;22332;51.954;20.118;2022-08-18T19:08:23;9.00;;;7.90;;
35847;SDS011;22332;51.954;20.118;2022-08-18T19:11:45;8.00;;;7.30;;